Time;durP1;ratioP1;P1;durP2;ratioP2;P2;SDS_P1;SDS_P2;PMS_P1;PMS_P2;Temp;Humidity;BMP_temperature;BMP_pressure;BME280_temperature;BME280_humidity;BME280_pressure;Samples;Min_cycle;Max_cycle;Signal;HPM_P1;HPM_P2
2023/05/06 00:00:50;;;;;;;8.30;2.90;;;;;;;;;;10107707;23;20093;-84
2023/05/06 00:04:53;;;;;;;9.75;3.20;;;;;;;;;;10091222;23;20101;-84
2023/05/06 00:08:55;;;;;;;9.63;3.83;;;;;;;;;;10091526;23;20101;-84
2023/05/06 00:13:00;;;;;;;6.35;3.45;;;;;;;;;;10091059;23;20022;-84
2023/05/06 00:17:03;;;;;;;4.50;2.80;;;;;;;;;;10091099;23;20638;-85
2023/05/06 00:21:06;;;;;;;6.55;3.20;;;;;;;;;;10091343;23;20024;-85
2023/05/06 00:25:09;;;;;;;4.93;3.00;;;;;;;;;;10091101;23;20595;-84
2023/05/06 00:29:14;;;;;;;3.67;2.15;;;;;;;;;;10090960;23;20511;-85
2023/05/06 00:33:17;;;;;;;5.43;3.28;;;;;;;;;;10091879;23;20436;-84
2023/05/06 00:37:20;;;;;;;9.82;3.67;;;;;;;;;;10090826;23;20077;-84
2023/05/06 00:41:23;;;;;;;8.45;3.85;;;;;;;;;;10091168;23;20018;-84
2023/05/06 00:45:27;;;;;;;6.90;3.55;;;;;;;;;;10091105;23;20086;-85
2023/05/06 00:49:34;;;;;;;6.30;3.55;;;;;;;;;;10090744;23;20018;-85
2023/05/06 00:53:37;;;;;;;6.18;2.58;;;;;;;;;;10090809;23;20467;-84
2023/05/06 00:57:40;;;;;;;5.63;3.60;;;;;;;;;;10091522;23;20534;-84
2023/05/06 01:01:46;;;;;;;6.03;3.42;;;;;;;;;;10090082;23;20459;-84
2023/05/06 01:06:00;;;;;;;5.50;3.25;;;;;;;;;;10106975;23;20070;-85
2023/05/06 01:10:09;;;;;;;10.13;3.60;;;;;;;;;;10106132;23;20140;-85
2023/05/06 01:14:21;;;;;;;5.20;3.63;;;;;;;;;;10106611;23;20117;-84
2023/05/06 01:18:27;;;;;;;6.20;3.10;;;;;;;;;;10106724;23;20041;-86
2023/05/06 01:22:30;;;;;;;5.35;3.08;;;;;;;;;;10106641;23;20049;-85
2023/05/06 01:26:35;;;;;;;6.40;3.30;;;;;;;;;;10089247;23;20485;-86
2023/05/06 01:30:45;;;;;;;10.27;4.18;;;;;;;;;;10090113;23;20080;-85
2023/05/06 01:34:56;;;;;;;9.40;3.75;;;;;;;;;;10106178;23;20078;-86
2023/05/06 01:39:04;;;;;;;12.93;3.65;;;;;;;;;;10109056;23;20089;-85
2023/05/06 01:43:13;;;;;;;7.03;3.60;;;;;;;;;;10108628;23;20395;-83
2023/05/06 01:47:17;;;;;;;7.82;3.50;;;;;;;;;;10109550;23;20022;-86
2023/05/06 01:51:21;;;;;;;6.07;3.05;;;;;;;;;;10092698;23;20069;-86
2023/05/06 01:55:24;;;;;;;5.80;3.33;;;;;;;;;;10093653;23;20029;-85
2023/05/06 01:59:28;;;;;;;8.07;3.85;;;;;;;;;;10092524;23;20093;-85
2023/05/06 02:03:31;;;;;;;6.07;3.10;;;;;;;;;;10092868;23;20098;-85
2023/05/06 02:07:34;;;;;;;9.30;3.70;;;;;;;;;;10093252;23;20025;-85
2023/05/06 02:11:37;;;;;;;6.03;3.35;;;;;;;;;;10092959;23;20023;-85
2023/05/06 02:15:41;;;;;;;8.13;3.70;;;;;;;;;;10093133;23;20499;-84
2023/05/06 02:19:44;;;;;;;7.78;3.47;;;;;;;;;;10093183;23;20101;-84
2023/05/06 02:23:47;;;;;;;5.57;3.17;;;;;;;;;;10093037;23;20418;-84
2023/05/06 02:27:49;;;;;;;8.20;3.67;;;;;;;;;;10092866;23;20387;-84
2023/05/06 02:31:54;;;;;;;5.53;3.45;;;;;;;;;;10093029;23;20038;-85
2023/05/06 02:35:57;;;;;;;12.95;4.68;;;;;;;;;;10092696;23;20065;-84
2023/05/06 02:40:00;;;;;;;5.82;3.53;;;;;;;;;;10092860;23;20025;-85
2023/05/06 02:44:03;;;;;;;8.10;3.38;;;;;;;;;;10092546;23;20026;-83
2023/05/06 02:48:07;;;;;;;8.73;4.07;;;;;;;;;;10092347;23;20022;-84
2023/05/06 02:52:10;;;;;;;9.18;3.55;;;;;;;;;;10092429;23;20073;-86
2023/05/06 02:56:13;;;;;;;9.63;3.70;;;;;;;;;;10092492;23;20351;-84
2023/05/06 03:00:16;;;;;;;5.13;3.22;;;;;;;;;;10091612;23;20145;-85
2023/05/06 03:04:21;;;;;;;7.88;3.88;;;;;;;;;;10092136;23;20022;-85
2023/05/06 03:08:24;;;;;;;7.68;3.60;;;;;;;;;;10092206;23;20045;-85
2023/05/06 03:12:27;;;;;;;6.88;3.53;;;;;;;;;;10092198;23;20460;-85
2023/05/06 03:16:29;;;;;;;8.20;3.78;;;;;;;;;;10091914;23;20030;-85
2023/05/06 03:20:34;;;;;;;7.03;3.60;;;;;;;;;;10091810;23;20025;-85
2023/05/06 03:24:37;;;;;;;5.05;3.15;;;;;;;;;;10092294;23;20014;-84
2023/05/06 03:28:40;;;;;;;8.30;3.17;;;;;;;;;;10091975;23;20474;-86
2023/05/06 03:32:45;;;;;;;5.05;3.03;;;;;;;;;;10091828;23;20121;-84
2023/05/06 03:36:49;;;;;;;6.18;3.35;;;;;;;;;;10091333;23;20053;-85
2023/05/06 03:40:53;;;;;;;4.97;3.15;;;;;;;;;;10091648;23;20045;-84
2023/05/06 03:44:56;;;;;;;5.45;2.97;;;;;;;;;;10091702;23;20029;-83
2023/05/06 03:48:59;;;;;;;7.40;3.47;;;;;;;;;;10091793;23;20131;-84
2023/05/06 03:53:04;;;;;;;5.93;2.72;;;;;;;;;;10091738;23;20089;-84
2023/05/06 03:57:07;;;;;;;6.50;2.90;;;;;;;;;;10091019;23;20026;-84
2023/05/06 04:01:09;;;;;;;6.13;2.70;;;;;;;;;;10091027;23;20502;-85
2023/05/06 04:05:12;;;;;;;7.80;2.92;;;;;;;;;;10107657;23;20455;-84
2023/05/06 04:09:17;;;;;;;5.32;2.90;;;;;;;;;;10091121;23;20097;-85
2023/05/06 04:13:20;;;;;;;6.47;3.15;;;;;;;;;;10091516;23;20360;-86
2023/05/06 04:17:23;;;;;;;6.05;3.28;;;;;;;;;;10091106;23;20025;-85
2023/05/06 04:21:25;;;;;;;5.35;3.33;;;;;;;;;;10091198;23;20033;-86
2023/05/06 04:25:30;;;;;;;6.03;3.38;;;;;;;;;;10091373;23;20018;-86
2023/05/06 04:29:33;;;;;;;4.90;3.05;;;;;;;;;;10090820;23;20018;-86
2023/05/06 04:33:36;;;;;;;7.47;2.90;;;;;;;;;;10091063;23;20392;-84
2023/05/06 04:37:39;;;;;;;3.53;2.03;;;;;;;;;;10090955;23;20026;-85
2023/05/06 04:41:43;;;;;;;6.28;2.95;;;;;;;;;;10090945;23;20022;-84
2023/05/06 04:45:48;;;;;;;4.93;2.60;;;;;;;;;;10090897;23;20045;-86
2023/05/06 04:49:51;;;;;;;9.90;2.97;;;;;;;;;;10090837;23;20567;-86
2023/05/06 04:53:54;;;;;;;10.02;4.50;;;;;;;;;;10091027;23;20109;-86
2023/05/06 04:57:58;;;;;;;5.93;2.78;;;;;;;;;;10090657;23;20026;-85
2023/05/06 05:02:01;;;;;;;7.05;2.88;;;;;;;;;;10090383;23;20525;-85
2023/05/06 05:06:06;;;;;;;5.38;3.00;;;;;;;;;;10090585;23;20030;-85
2023/05/06 05:10:10;;;;;;;5.63;2.83;;;;;;;;;;10090167;23;20369;-85
2023/05/06 05:14:14;;;;;;;5.28;2.95;;;;;;;;;;10090625;23;20022;-85
2023/05/06 05:18:17;;;;;;;5.60;2.80;;;;;;;;;;10090316;23;20093;-84
2023/05/06 05:22:20;;;;;;;4.97;2.60;;;;;;;;;;10089719;23;20018;-85
2023/05/06 05:26:23;;;;;;;4.32;2.45;;;;;;;;;;10089803;23;20108;-87
2023/05/06 05:30:27;;;;;;;4.28;3.00;;;;;;;;;;10082541;23;20101;-87
2023/05/06 05:34:31;;;;;;;7.53;2.40;;;;;;;;;;10086553;23;20023;-86
2023/05/06 05:38:34;;;;;;;4.32;2.50;;;;;;;;;;10088689;23;20023;-86
2023/05/06 05:42:37;;;;;;;4.65;2.75;;;;;;;;;;10090231;23;20022;-87
2023/05/06 05:46:42;;;;;;;3.75;2.10;;;;;;;;;;10089922;23;20022;-88
2023/05/06 05:50:45;;;;;;;6.10;3.03;;;;;;;;;;10090015;23;20046;-86
2023/05/06 05:54:48;;;;;;;3.72;2.53;;;;;;;;;;10090680;23;20030;-86
2023/05/06 05:58:50;;;;;;;6.07;2.65;;;;;;;;;;10090546;23;20022;-87
2023/05/06 06:02:55;;;;;;;4.03;2.30;;;;;;;;;;10089919;23;20033;-86
2023/05/06 06:06:58;;;;;;;4.97;2.58;;;;;;;;;;10090503;23;20470;-86
2023/05/06 06:11:02;;;;;;;4.97;2.17;;;;;;;;;;10090583;23;20023;-87
2023/05/06 06:15:05;;;;;;;4.57;2.58;;;;;;;;;;10064436;23;20033;-86
2023/05/06 06:19:10;;;;;;;5.40;2.65;;;;;;;;;;10090183;23;20028;-86
2023/05/06 06:23:13;;;;;;;8.93;3.03;;;;;;;;;;10091222;23;20018;-87
2023/05/06 06:27:16;;;;;;;3.60;2.50;;;;;;;;;;10066779;23;20447;-86
2023/05/06 06:31:18;;;;;;;5.88;2.67;;;;;;;;;;10092819;23;20451;-86
2023/05/06 06:35:23;;;;;;;8.38;3.70;;;;;;;;;;10092818;23;20026;-86
2023/05/06 06:39:26;;;;;;;14.48;5.95;;;;;;;;;;10092668;23;20049;-87
2023/05/06 06:43:29;;;;;;;12.25;6.05;;;;;;;;;;10092726;23;20022;-86
2023/05/06 06:47:32;;;;;;;6.72;3.97;;;;;;;;;;10091849;23;20078;-85
2023/05/06 06:51:36;;;;;;;21.75;11.02;;;;;;;;;;10092844;23;20022;-85
2023/05/06 06:55:42;;;;;;;6.00;3.40;;;;;;;;;;10092962;23;20019;-86
2023/05/06 06:59:46;;;;;;;4.93;2.67;;;;;;;;;;10111489;23;20054;-87
2023/05/06 07:03:49;;;;;;;5.65;3.00;;;;;;;;;;10090264;23;20085;-86
2023/05/06 07:07:54;;;;;;;5.22;2.30;;;;;;;;;;10086468;23;20106;-86
2023/05/06 07:11:57;;;;;;;4.28;1.98;;;;;;;;;;10086088;23;20435;-86
2023/05/06 07:16:00;;;;;;;7.10;3.38;;;;;;;;;;10086046;23;20033;-87
2023/05/06 07:20:03;;;;;;;10.45;3.90;;;;;;;;;;10085733;23;20027;-86
2023/05/06 07:24:08;;;;;;;7.57;3.83;;;;;;;;;;10086089;23;20050;-87
2023/05/06 07:28:11;;;;;;;8.27;4.78;;;;;;;;;;10086234;23;20392;-86
2023/05/06 07:32:14;;;;;;;5.80;3.22;;;;;;;;;;10085323;23;20018;-86
2023/05/06 07:36:17;;;;;;;5.50;3.20;;;;;;;;;;10085742;23;20669;-87
2023/05/06 07:40:23;;;;;;;7.60;2.17;;;;;;;;;;10086451;23;20570;-86
2023/05/06 07:44:26;;;;;;;6.18;2.20;;;;;;;;;;10085587;23;20470;-87
2023/05/06 07:48:29;;;;;;;6.80;3.00;;;;;;;;;;10086070;23;20040;-86
2023/05/06 07:52:32;;;;;;;5.35;2.38;;;;;;;;;;10085755;23;20471;-87
2023/05/06 07:56:36;;;;;;;6.10;2.65;;;;;;;;;;10085493;23;20440;-87
2023/05/06 08:00:39;;;;;;;4.47;2.50;;;;;;;;;;10083594;23;20056;-87
2023/05/06 08:04:42;;;;;;;7.15;3.50;;;;;;;;;;10084367;23;20027;-86
2023/05/06 08:08:46;;;;;;;4.47;2.92;;;;;;;;;;10084535;23;20053;-84
2023/05/06 08:12:50;;;;;;;7.70;2.40;;;;;;;;;;10084733;23;20078;-86
2023/05/06 08:16:54;;;;;;;7.55;2.60;;;;;;;;;;10085985;23;20101;-87
2023/05/06 08:20:57;;;;;;;3.35;2.20;;;;;;;;;;10085522;23;20654;-86
2023/05/06 08:25:02;;;;;;;5.50;2.65;;;;;;;;;;10085014;23;20341;-86
2023/05/06 08:29:06;;;;;;;4.30;2.05;;;;;;;;;;10085489;23;20022;-86
2023/05/06 08:33:09;;;;;;;13.77;6.90;;;;;;;;;;10084894;23;20499;-85
2023/05/06 08:37:13;;;;;;;3.95;2.30;;;;;;;;;;10086021;23;20022;-85
2023/05/06 08:41:17;;;;;;;10.98;4.53;;;;;;;;;;10087184;23;20026;-86
2023/05/06 08:45:22;;;;;;;3.67;2.17;;;;;;;;;;10085705;23;20041;-86
2023/05/06 08:49:25;;;;;;;6.88;3.83;;;;;;;;;;10085393;23;20054;-85
2023/05/06 08:53:29;;;;;;;3.95;2.15;;;;;;;;;;10059306;23;20033;-85
2023/05/06 08:57:32;;;;;;;4.93;2.42;;;;;;;;;;10084252;23;20057;-86
2023/05/06 09:01:38;;;;;;;4.35;1.85;;;;;;;;;;10084228;23;20031;-86
2023/05/06 09:05:41;;;;;;;4.72;2.35;;;;;;;;;;10085535;23;20089;-86
2023/05/06 09:09:43;;;;;;;4.55;2.50;;;;;;;;;;10084702;23;20030;-86
2023/05/06 09:13:46;;;;;;;3.28;2.10;;;;;;;;;;10084782;23;20249;-86
2023/05/06 09:17:51;;;;;;;4.40;2.03;;;;;;;;;;10085015;23;20329;-86
2023/05/06 09:21:53;;;;;;;5.85;2.30;;;;;;;;;;10084692;23;20097;-87
2023/05/06 09:25:57;;;;;;;5.93;2.30;;;;;;;;;;10084268;23;20022;-88
2023/05/06 09:30:01;;;;;;;4.57;2.40;;;;;;;;;;10085083;23;20045;-87
2023/05/06 09:34:06;;;;;;;3.83;1.88;;;;;;;;;;10084720;23;20022;-89
2023/05/06 09:38:10;;;;;;;3.55;2.17;;;;;;;;;;10084619;23;20022;-89
2023/05/06 09:42:13;;;;;;;4.03;2.00;;;;;;;;;;10084772;23;20110;-86
2023/05/06 09:46:16;;;;;;;4.03;2.35;;;;;;;;;;10085154;23;20409;-86
2023/05/06 09:50:22;;;;;;;3.38;2.00;;;;;;;;;;10084278;23;20018;-87
2023/05/06 09:54:25;;;;;;;4.47;2.17;;;;;;;;;;10058528;23;20022;-87
2023/05/06 09:58:30;;;;;;;9.35;4.32;;;;;;;;;;10087729;23;20481;-87
2023/05/06 10:02:34;;;;;;;7.72;2.17;;;;;;;;;;10097934;23;20455;-87
2023/05/06 10:06:40;;;;;;;6.40;3.67;;;;;;;;;;10087790;23;20018;-87
2023/05/06 10:10:44;;;;;;;5.95;3.53;;;;;;;;;;10103554;23;20094;-87
2023/05/06 10:14:47;;;;;;;5.07;2.42;;;;;;;;;;10062051;23;20030;-87
2023/05/06 10:18:53;;;;;;;4.72;2.92;;;;;;;;;;10087348;23;20026;-85
2023/05/06 10:23:05;;;;;;;4.95;2.67;;;;;;;;;;10103328;23;20022;-86
2023/05/06 10:27:09;;;;;;;5.15;2.33;;;;;;;;;;10061580;23;20026;-86
2023/05/06 10:31:13;;;;;;;7.93;4.03;;;;;;;;;;10086766;23;20025;-86
2023/05/06 10:35:27;;;;;;;8.77;3.30;;;;;;;;;;10087156;23;20105;-86
2023/05/06 10:39:31;;;;;;;11.80;6.75;;;;;;;;;;10061421;23;20469;-85
2023/05/06 10:43:38;;;;;;;5.28;2.00;;;;;;;;;;10086795;23;20388;-86
2023/05/06 10:48:09;;;;;;;5.75;3.03;;;;;;;;;;10086796;23;20085;-87
2023/05/06 10:52:16;;;;;;;157.23;57.50;;;;;;;;;;10102729;23;20397;-84
2023/05/06 10:56:23;;;;;;;18.65;8.32;;;;;;;;;;10102701;23;20042;-86
2023/05/06 11:00:26;;;;;;;7.95;3.90;;;;;;;;;;10102731;23;20097;-85
2023/05/06 11:04:30;;;;;;;6.68;3.63;;;;;;;;;;10085740;23;20031;-86
2023/05/06 11:08:34;;;;;;;13.68;7.57;;;;;;;;;;10086549;23;20347;-87
2023/05/06 11:12:49;;;;;;;13.88;4.03;;;;;;;;;;10086697;23;20042;-85
2023/05/06 11:16:53;;;;;;;8.15;3.38;;;;;;;;;;10102281;23;20022;-87
2023/05/06 11:21:41;;;;;;;22.38;10.05;;;;;;;;;;10086220;23;20078;-88
2023/05/06 11:25:55;;;;;;;28.17;11.55;;;;;;;;;;10102631;23;20090;-90
2023/05/06 11:30:01;;;;;;;46.05;19.08;;;;;;;;;;10102627;23;20443;-90
2023/05/06 11:34:09;;;;;;;12.77;4.40;;;;;;;;;;10086162;23;20026;-90
2023/05/06 11:38:12;;;;;;;7.53;4.40;;;;;;;;;;10102552;23;20072;-88
2023/05/06 11:42:15;;;;;;;7.82;3.55;;;;;;;;;;10086277;23;20026;-89
2023/05/06 11:46:22;;;;;;;8.15;3.92;;;;;;;;;;10086335;23;20415;-91
2023/05/06 11:50:28;;;;;;;7.78;3.88;;;;;;;;;;10103671;23;20324;-91
2023/05/06 11:54:36;;;;;;;8.52;4.05;;;;;;;;;;10087793;23;20045;-89
2023/05/06 11:58:44;;;;;;;5.22;3.00;;;;;;;;;;10102364;23;20093;-91
2023/05/06 12:02:58;;;;;;;9.73;4.60;;;;;;;;;;10094148;23;20030;-90
2023/05/06 12:07:04;;;;;;;7.32;3.47;;;;;;;;;;10102160;23;20018;-87
2023/05/06 12:11:09;;;;;;;8.05;4.28;;;;;;;;;;10087797;23;20022;-86
2023/05/06 12:15:13;;;;;;;4.50;2.88;;;;;;;;;;10086243;23;20427;-88
2023/05/06 12:19:21;;;;;;;6.78;3.80;;;;;;;;;;10086459;23;20022;-90
2023/05/06 12:23:24;;;;;;;7.95;3.50;;;;;;;;;;10102297;23;20024;-88
2023/05/06 12:27:36;;;;;;;6.72;3.50;;;;;;;;;;10086011;23;20022;-87
2023/05/06 12:31:39;;;;;;;5.00;2.78;;;;;;;;;;10101013;23;20112;-89
2023/05/06 12:35:44;;;;;;;7.20;4.22;;;;;;;;;;10085499;23;20519;-88
2023/05/06 12:39:47;;;;;;;9.50;4.55;;;;;;;;;;10085571;23;20022;-89
2023/05/06 12:43:51;;;;;;;8.52;3.50;;;;;;;;;;10085852;23;20463;-89
2023/05/06 12:47:55;;;;;;;17.42;11.32;;;;;;;;;;10085683;23;20365;-87
2023/05/06 12:52:10;;;;;;;9.70;6.65;;;;;;;;;;10085640;23;20045;-88
2023/05/06 12:56:13;;;;;;;18.42;9.23;;;;;;;;;;10101790;23;20018;-88
2023/05/06 13:00:17;;;;;;;14.40;6.35;;;;;;;;;;10086015;23;20033;-88
2023/05/06 13:04:21;;;;;;;19.65;14.85;;;;;;;;;;10085964;23;20034;-87
2023/05/06 13:08:28;;;;;;;24.98;9.70;;;;;;;;;;10087258;23;20022;-92
2023/05/06 13:12:32;;;;;;;12.00;5.38;;;;;;;;;;10101884;23;20045;-88
2023/05/06 13:16:35;;;;;;;36.55;16.38;;;;;;;;;;10085315;23;20062;-88
2023/05/06 13:20:40;;;;;;;23.92;10.50;;;;;;;;;;10085029;23;20019;-89
2023/05/06 13:24:44;;;;;;;8.77;3.63;;;;;;;;;;10085374;23;20022;-87
2023/05/06 13:28:47;;;;;;;36.72;17.83;;;;;;;;;;10085400;23;20033;-88
2023/05/06 13:32:50;;;;;;;26.25;14.45;;;;;;;;;;10063638;23;20029;-89
2023/05/06 13:36:55;;;;;;;15.98;8.05;;;;;;;;;;10088761;23;20044;-91
2023/05/06 13:41:03;;;;;;;20.50;9.18;;;;;;;;;;10088740;23;20030;-91
2023/05/06 13:45:09;;;;;;;33.20;18.67;;;;;;;;;;10106034;23;20025;-90
2023/05/06 13:49:13;;;;;;;62.03;26.42;;;;;;;;;;10017176;23;20105;-91
2023/05/06 13:53:20;;;;;;;33.55;12.50;;;;;;;;;;10091483;23;20075;-90
2023/05/06 13:57:27;;;;;;;21.02;10.07;;;;;;;;;;10105300;23;20443;-89
2023/05/06 14:01:31;;;;;;;45.88;20.15;;;;;;;;;;10105468;23;20058;-91
2023/05/06 14:05:34;;;;;;;31.35;14.73;;;;;;;;;;10107778;23;20049;-91
2023/05/06 14:09:38;;;;;;;18.52;7.97;;;;;;;;;;10095525;23;20489;-89
2023/05/06 14:13:43;;;;;;;13.30;6.47;;;;;;;;;;10092601;23;20333;-89
2023/05/06 14:17:46;;;;;;;14.43;6.38;;;;;;;;;;10066710;23;20037;-88
2023/05/06 14:21:50;;;;;;;27.20;13.75;;;;;;;;;;10089999;23;20053;-86
2023/05/06 14:25:54;;;;;;;38.50;18.17;;;;;;;;;;10089893;23;20081;-90
2023/05/06 14:29:59;;;;;;;39.15;17.98;;;;;;;;;;10089069;23;20023;-86
2023/05/06 14:34:08;;;;;;;16.33;6.28;;;;;;;;;;10089282;23;20023;-89
2023/05/06 14:38:11;;;;;;;20.67;8.52;;;;;;;;;;10104231;23;20022;-88
2023/05/06 14:42:14;;;;;;;19.13;7.82;;;;;;;;;;10088106;23;20022;-89
2023/05/06 14:46:19;;;;;;;12.82;6.63;;;;;;;;;;10087809;23;20690;-90
2023/05/06 14:50:22;;;;;;;17.50;5.57;;;;;;;;;;10088270;23;20788;-87
2023/05/06 14:54:28;;;;;;;10.65;5.85;;;;;;;;;;10087348;23;20105;-87
2023/05/06 14:58:31;;;;;;;18.65;9.38;;;;;;;;;;10094297;23;20030;-86
2023/05/06 15:02:36;;;;;;;12.48;5.85;;;;;;;;;;10086810;23;20467;-87
2023/05/06 15:06:39;;;;;;;17.70;10.45;;;;;;;;;;10086372;23;20022;-87
2023/05/06 15:10:44;;;;;;;11.70;5.68;;;;;;;;;;10087333;23;20022;-87
2023/05/06 15:14:52;;;;;;;15.48;7.30;;;;;;;;;;10102986;23;20486;-86
2023/05/06 15:19:00;;;;;;;13.00;5.18;;;;;;;;;;10086509;23;20022;-86
2023/05/06 15:23:03;;;;;;;22.30;10.48;;;;;;;;;;10102762;23;20406;-86
2023/05/06 15:27:07;;;;;;;15.77;6.88;;;;;;;;;;10086246;23;20028;-87
2023/05/06 15:31:10;;;;;;;11.38;5.28;;;;;;;;;;10088585;23;20105;-86
2023/05/06 15:35:17;;;;;;;10.13;5.60;;;;;;;;;;10088206;23;20082;-85
2023/05/06 15:39:21;;;;;;;9.88;5.22;;;;;;;;;;10106373;23;20019;-84
2023/05/06 15:43:25;;;;;;;18.13;9.85;;;;;;;;;;10092202;23;20351;-86
2023/05/06 15:47:29;;;;;;;20.83;7.70;;;;;;;;;;10089822;23;20057;-87
2023/05/06 15:51:36;;;;;;;20.88;8.00;;;;;;;;;;10087347;23;20086;-86
2023/05/06 15:55:41;;;;;;;15.73;6.25;;;;;;;;;;10085747;23;20081;-86
2023/05/06 15:59:45;;;;;;;218.85;66.88;;;;;;;;;;10085365;23;20660;-86
2023/05/06 16:03:48;;;;;;;19.33;7.53;;;;;;;;;;10085906;23;20069;-85
2023/05/06 16:07:54;;;;;;;12.85;5.93;;;;;;;;;;10085690;23;20033;-86
2023/05/06 16:11:57;;;;;;;17.80;7.22;;;;;;;;;;10086512;23;20029;-86
2023/05/06 16:16:00;;;;;;;22.60;11.55;;;;;;;;;;10085244;23;20022;-84
2023/05/06 16:20:04;;;;;;;85.75;35.00;;;;;;;;;;10085155;23;20077;-85
2023/05/06 16:24:09;;;;;;;50.35;16.52;;;;;;;;;;10086193;23;20025;-86
2023/05/06 16:28:13;;;;;;;53.97;21.83;;;;;;;;;;10101453;23;20033;-86
2023/05/06 16:32:16;;;;;;;59.47;20.85;;;;;;;;;;10084847;23;20026;-86
2023/05/06 16:36:19;;;;;;;20.25;8.68;;;;;;;;;;10085873;23;20022;-86
2023/05/06 16:40:26;;;;;;;25.10;8.13;;;;;;;;;;10085401;23;20657;-85
2023/05/06 16:44:31;;;;;;;28.38;8.98;;;;;;;;;;10105666;23;20026;-86
2023/05/06 16:48:35;;;;;;;14.30;7.35;;;;;;;;;;10063339;23;20025;-86
2023/05/06 16:52:38;;;;;;;21.58;8.30;;;;;;;;;;10086669;23;20022;-88
2023/05/06 16:56:42;;;;;;;9.65;5.85;;;;;;;;;;10084422;23;20050;-87
2023/05/06 17:00:45;;;;;;;30.25;9.60;;;;;;;;;;10084822;23;20451;-89
2023/05/06 17:04:48;;;;;;;14.68;7.22;;;;;;;;;;10084836;23;20104;-88
2023/05/06 17:08:51;;;;;;;11.52;6.28;;;;;;;;;;10084930;23;20054;-88
2023/05/06 17:12:56;;;;;;;13.82;6.95;;;;;;;;;;10085167;23;20022;-87
2023/05/06 17:17:02;;;;;;;10.35;5.75;;;;;;;;;;10100938;23;20018;-86
2023/05/06 17:21:08;;;;;;;8.55;4.72;;;;;;;;;;10101015;23;20460;-86
2023/05/06 17:25:12;;;;;;;10.68;5.15;;;;;;;;;;10100979;23;20026;-87
2023/05/06 17:29:16;;;;;;;13.00;5.35;;;;;;;;;;10084300;23;20033;-87
2023/05/06 17:33:19;;;;;;;4.35;2.80;;;;;;;;;;10086664;23;20029;-87
2023/05/06 17:37:23;;;;;;;5.05;3.08;;;;;;;;;;10086400;23;20026;-87
2023/05/06 17:41:28;;;;;;;13.40;6.90;;;;;;;;;;10103279;23;20105;-86
2023/05/06 17:45:32;;;;;;;13.23;5.70;;;;;;;;;;10085004;23;20030;-86
2023/05/06 17:49:35;;;;;;;20.65;9.73;;;;;;;;;;10084751;23;20584;-86
2023/05/06 17:53:38;;;;;;;41.72;21.50;;;;;;;;;;10084797;23;20026;-88
2023/05/06 17:57:41;;;;;;;14.15;6.88;;;;;;;;;;10084857;23;20057;-89
2023/05/06 18:01:46;;;;;;;18.85;10.95;;;;;;;;;;10084918;23;20054;-87
2023/05/06 18:05:49;;;;;;;19.45;13.00;;;;;;;;;;10085136;23;20340;-88
2023/05/06 18:09:52;;;;;;;9.05;5.20;;;;;;;;;;10084479;23;20105;-86
2023/05/06 18:13:55;;;;;;;18.45;9.45;;;;;;;;;;10085271;23;20132;-88
2023/05/06 18:18:00;;;;;;;18.00;14.90;;;;;;;;;;10090937;23;20046;-89
2023/05/06 18:22:05;;;;;;;12.02;7.57;;;;;;;;;;10092940;23;20046;-90
2023/05/06 18:26:08;;;;;;;17.35;7.13;;;;;;;;;;10093384;23;20456;-90
2023/05/06 18:30:13;;;;;;;7.57;4.90;;;;;;;;;;10099196;23;20049;-90
2023/05/06 18:34:22;;;;;;;9.48;5.68;;;;;;;;;;10109602;23;20022;-89
2023/05/06 18:38:26;;;;;;;12.73;8.27;;;;;;;;;;10068714;23;20030;-89
2023/05/06 18:42:32;;;;;;;11.93;7.93;;;;;;;;;;10095697;23;20023;-88
2023/05/06 18:46:35;;;;;;;13.50;6.70;;;;;;;;;;10095068;23;20026;-87
2023/05/06 18:50:41;;;;;;;10.30;5.07;;;;;;;;;;10095162;23;20049;-88
2023/05/06 18:54:46;;;;;;;7.10;4.05;;;;;;;;;;10109977;23;20057;-88
2023/05/06 18:58:50;;;;;;;8.60;5.03;;;;;;;;;;10094502;23;20091;-88
2023/05/06 19:03:00;;;;;;;7.97;5.20;;;;;;;;;;10103039;23;20093;-88
2023/05/06 19:07:10;;;;;;;34.45;11.55;;;;;;;;;;10094152;23;20019;-90
2023/05/06 19:11:15;;;;;;;137.05;39.88;;;;;;;;;;10108456;23;20027;-88
2023/05/06 19:15:25;;;;;;;134.88;33.72;;;;;;;;;;10108288;23;20026;-89
2023/05/06 19:19:31;;;;;;;76.55;18.83;;;;;;;;;;10090964;23;20014;-89
2023/05/06 19:23:41;;;;;;;175.10;40.83;;;;;;;;;;10090516;23;20455;-90
2023/05/06 19:27:45;;;;;;;42.60;12.55;;;;;;;;;;10107911;23;20329;-89
2023/05/06 19:31:50;;;;;;;74.25;27.63;;;;;;;;;;10091989;23;20018;-89
2023/05/06 19:36:10;;;;;;;35.80;17.48;;;;;;;;;;10065788;23;20061;-87
2023/05/06 19:40:24;;;;;;;36.37;20.40;;;;;;;;;;10106678;23;20018;-86
2023/05/06 19:44:28;;;;;;;36.22;16.02;;;;;;;;;;10108007;23;20258;-86
2023/05/06 19:48:34;;;;;;;19.70;10.90;;;;;;;;;;10090453;23;20426;-86
2023/05/06 19:52:59;;;;;;;21.92;10.75;;;;;;;;;;10106489;23;20097;-85
2023/05/06 19:57:19;;;;;;;7.63;4.38;;;;;;;;;;10106320;23;20451;-85
2023/05/06 20:01:23;;;;;;;9.13;5.20;;;;;;;;;;10104587;23;20027;-85
2023/05/06 20:05:30;;;;;;;12.93;7.35;;;;;;;;;;10090606;23;20068;-83
2023/05/06 20:09:33;;;;;;;5.35;3.63;;;;;;;;;;10091267;23;20423;-87
2023/05/06 20:13:38;;;;;;;4.70;2.75;;;;;;;;;;10091517;23;20019;-86
2023/05/06 20:17:41;;;;;;;6.65;3.45;;;;;;;;;;10065627;23;20018;-84
2023/05/06 20:21:44;;;;;;;5.47;2.85;;;;;;;;;;10091290;23;20343;-85
2023/05/06 20:25:48;;;;;;;6.55;3.83;;;;;;;;;;10091158;23;20503;-87
2023/05/06 20:29:52;;;;;;;7.20;3.35;;;;;;;;;;10091285;23;20023;-86
2023/05/06 20:33:55;;;;;;;6.72;3.70;;;;;;;;;;10091090;23;20122;-87
2023/05/06 20:37:58;;;;;;;3.35;2.28;;;;;;;;;;10090976;23;20344;-87
2023/05/06 20:42:02;;;;;;;14.35;6.90;;;;;;;;;;10090952;23;20022;-86
2023/05/06 20:46:07;;;;;;;10.50;4.88;;;;;;;;;;10091128;23;20026;-86
2023/05/06 20:50:15;;;;;;;4.97;2.88;;;;;;;;;;10065849;23;20022;-87
2023/05/06 20:54:18;;;;;;;4.95;2.72;;;;;;;;;;10107057;23;20038;-84
2023/05/06 20:58:22;;;;;;;3.17;2.20;;;;;;;;;;10091065;23;20022;-86
2023/05/06 21:02:28;;;;;;;5.25;2.92;;;;;;;;;;10090702;23;20022;-83
2023/05/06 21:06:31;;;;;;;5.30;3.20;;;;;;;;;;10108001;23;20352;-86
2023/05/06 21:10:34;;;;;;;4.50;2.53;;;;;;;;;;10091000;23;20097;-88
2023/05/06 21:14:37;;;;;;;6.10;2.92;;;;;;;;;;10090854;23;20023;-86
2023/05/06 21:18:42;;;;;;;7.50;3.05;;;;;;;;;;10090926;23;20351;-87
2023/05/06 21:22:44;;;;;;;3.90;2.80;;;;;;;;;;10090844;23;20026;-87
2023/05/06 21:26:47;;;;;;;4.47;2.90;;;;;;;;;;10090980;23;20025;-87
2023/05/06 21:30:50;;;;;;;5.70;3.17;;;;;;;;;;10091245;23;20027;-88
2023/05/06 21:34:55;;;;;;;4.22;2.65;;;;;;;;;;10090142;23;20022;-88
2023/05/06 21:39:05;;;;;;;3.25;2.40;;;;;;;;;;10090565;23;20014;-88
2023/05/06 21:43:08;;;;;;;3.72;2.17;;;;;;;;;;10107355;23;20018;-87
2023/05/06 21:47:11;;;;;;;3.63;2.22;;;;;;;;;;10090930;23;20022;-87
2023/05/06 21:51:16;;;;;;;5.05;2.40;;;;;;;;;;10091318;23;20122;-87
2023/05/06 21:55:19;;;;;;;1.85;1.50;;;;;;;;;;10093727;23;20399;-87
2023/05/06 21:59:22;;;;;;;2.25;1.70;;;;;;;;;;10093489;23;20026;-87
2023/05/06 22:03:27;;;;;;;4.28;2.33;;;;;;;;;;10093881;23;20061;-87
2023/05/06 22:07:34;;;;;;;3.78;2.47;;;;;;;;;;10093594;23;20022;-87
2023/05/06 22:11:40;;;;;;;4.65;2.67;;;;;;;;;;10068615;23;20053;-87
2023/05/06 22:15:43;;;;;;;2.22;1.73;;;;;;;;;;10109175;23;20026;-87
2023/05/06 22:19:46;;;;;;;3.40;2.15;;;;;;;;;;10093110;23;20042;-88
2023/05/06 22:23:50;;;;;;;1.52;1.42;;;;;;;;;;10093221;23;20022;-88
2023/05/06 22:27:53;;;;;;;3.33;2.70;;;;;;;;;;10093320;23;20033;-88
2023/05/06 22:31:56;;;;;;;3.60;2.25;;;;;;;;;;10093132;23;20025;-86
2023/05/06 22:35:59;;;;;;;2.83;2.00;;;;;;;;;;10093072;23;20042;-87
2023/05/06 22:40:05;;;;;;;3.25;2.30;;;;;;;;;;10092729;23;20057;-86
2023/05/06 22:44:08;;;;;;;2.70;2.03;;;;;;;;;;10093128;23;20101;-87
2023/05/06 22:48:11;;;;;;;4.03;2.40;;;;;;;;;;10093214;23;20050;-87
2023/05/06 22:52:15;;;;;;;3.90;2.67;;;;;;;;;;10093085;23;20101;-87
2023/05/06 22:56:19;;;;;;;2.80;2.15;;;;;;;;;;10066713;23;20113;-87
2023/05/06 23:00:22;;;;;;;3.10;1.90;;;;;;;;;;10092343;23;20031;-87
2023/05/06 23:04:25;;;;;;;1.48;1.38;;;;;;;;;;10093242;23;20467;-86
2023/05/06 23:08:28;;;;;;;3.67;2.03;;;;;;;;;;10093190;23;20101;-85
2023/05/06 23:12:34;;;;;;;1.50;1.40;;;;;;;;;;10092413;23;20015;-85
2023/05/06 23:16:37;;;;;;;3.08;2.15;;;;;;;;;;10108548;23;20085;-87
2023/05/06 23:20:39;;;;;;;4.05;2.30;;;;;;;;;;10092144;23;20027;-86
2023/05/06 23:24:42;;;;;;;4.55;1.35;;;;;;;;;;10091550;23;20022;-86
2023/05/06 23:28:46;;;;;;;2.85;1.98;;;;;;;;;;10092136;23;20656;-87
2023/05/06 23:32:49;;;;;;;2.95;1.98;;;;;;;;;;10092354;23;20025;-87
2023/05/06 23:36:52;;;;;;;2.40;1.38;;;;;;;;;;10092081;23;20447;-87
2023/05/06 23:40:55;;;;;;;4.75;2.05;;;;;;;;;;10091787;23;20029;-87
2023/05/06 23:44:59;;;;;;;2.53;1.60;;;;;;;;;;10092002;23;20022;-87
2023/05/06 23:49:02;;;;;;;3.65;2.00;;;;;;;;;;10091767;23;20030;-86
2023/05/06 23:53:05;;;;;;;2.35;1.92;;;;;;;;;;10091890;23;20018;-87